createdAt,value
2022-12-23T00:00:45.277Z,7.07
2022-12-23T00:03:12.737Z,7.15
2022-12-23T00:05:40.538Z,6.88
2022-12-23T00:08:08.074Z,6.88
2022-12-23T00:10:39.087Z,6.18
2022-12-23T00:13:24.848Z,6.85
2022-12-23T00:15:51.884Z,8.02
2022-12-23T00:18:18.823Z,7.57
2022-12-23T00:20:45.776Z,7.40
2022-12-23T00:23:13.037Z,6.88
2022-12-23T00:25:43.948Z,6.85
2022-12-23T00:28:16.483Z,8.45
2022-12-23T00:31:03.954Z,6.82
2022-12-23T00:33:39.996Z,7.35
2022-12-23T00:36:29.945Z,7.43
2022-12-23T00:39:17.504Z,7.90
2022-12-23T00:42:03.268Z,7.55
2022-12-23T00:44:30.756Z,7.68
2022-12-23T00:46:57.759Z,7.00
2022-12-23T00:49:43.084Z,8.40
2022-12-23T00:52:12.622Z,7.55
2022-12-23T00:54:41.036Z,8.93
2022-12-23T00:57:08.014Z,8.85
2022-12-23T00:59:35.189Z,8.45
2022-12-23T01:02:21.055Z,7.38
2022-12-23T01:05:06.520Z,9.52
2022-12-23T01:07:33.788Z,8.85
2022-12-23T01:10:00.859Z,9.65
2022-12-23T01:12:28.302Z,9.77
2022-12-23T01:14:55.426Z,9.88
2022-12-23T01:17:22.535Z,10.02
2022-12-23T01:19:49.588Z,9.55
2022-12-23T01:22:16.599Z,10.18
2022-12-23T01:24:43.587Z,9.90
2022-12-23T01:27:10.569Z,10.23
2022-12-23T01:29:37.705Z,10.02
2022-12-23T01:32:04.981Z,10.40
2022-12-23T01:34:36.699Z,9.30
2022-12-23T01:37:05.397Z,9.50
2022-12-23T01:39:32.821Z,8.80
2022-12-23T01:42:18.510Z,9.45
2022-12-23T01:45:11.592Z,8.98
2022-12-23T01:47:50.410Z,9.32
2022-12-23T01:50:50.255Z,8.98
2022-12-23T01:53:22.014Z,9.40
2022-12-23T01:55:51.269Z,8.95
2022-12-23T01:58:30.567Z,10.90
2022-12-23T02:01:17.635Z,9.55
2022-12-23T02:03:46.399Z,9.38
2022-12-23T02:06:44.907Z,10.45
2022-12-23T02:09:17.544Z,10.50
2022-12-23T02:12:22.025Z,10.48
2022-12-23T02:15:25.473Z,9.90
2022-12-23T02:18:11.872Z,10.35
2022-12-23T02:21:26.323Z,10.65
2022-12-23T02:23:53.381Z,9.82
2022-12-23T02:26:33.774Z,9.32
2022-12-23T02:29:15.925Z,10.73
2022-12-23T02:31:56.823Z,10.05
2022-12-23T02:34:51.240Z,12.27
2022-12-23T02:37:24.186Z,12.90
2022-12-23T02:40:13.116Z,12.60
2022-12-23T02:42:59.614Z,12.27
2022-12-23T02:45:55.847Z,12.77
2022-12-23T02:48:27.378Z,11.68
2022-12-23T02:50:56.902Z,11.50
2022-12-23T02:53:37.611Z,11.75
2022-12-23T02:56:08.247Z,11.40
2022-12-23T02:58:42.457Z,10.82
2022-12-23T03:01:12.362Z,11.23
2022-12-23T03:03:41.537Z,12.68
2022-12-23T03:06:19.866Z,13.63
2022-12-23T03:08:47.983Z,15.32
2022-12-23T03:11:16.874Z,14.80
2022-12-23T03:13:59.036Z,14.25
2022-12-23T03:17:00.509Z,14.27
2022-12-23T03:19:47.699Z,13.98
2022-12-23T03:22:38.606Z,12.40
2022-12-23T03:25:23.482Z,11.48
2022-12-23T03:28:09.514Z,12.45
2022-12-23T03:30:39.493Z,13.90
2022-12-23T03:33:17.221Z,14.52
2022-12-23T03:35:50.144Z,12.52
2022-12-23T03:38:19.479Z,12.93
2022-12-23T03:40:55.551Z,13.90
2022-12-23T03:43:29.032Z,13.85
2022-12-23T03:46:03.414Z,12.10
2022-12-23T03:48:37.094Z,14.10
2022-12-23T03:51:19.348Z,14.20
2022-12-23T03:53:54.961Z,13.30
2022-12-23T03:56:48.161Z,13.00
2022-12-23T03:59:21.646Z,15.00
2022-12-23T04:02:07.017Z,13.93
2022-12-23T04:04:40.155Z,14.20
2022-12-23T04:07:15.760Z,14.20
2022-12-23T04:09:43.619Z,12.73
2022-12-23T04:12:10.967Z,14.80
2022-12-23T04:14:45.322Z,15.05
2022-12-23T04:17:12.332Z,13.40
2022-12-23T04:19:39.293Z,14.60
2022-12-23T04:22:06.311Z,12.73
2022-12-23T04:24:33.323Z,14.50
2022-12-23T04:27:00.295Z,14.68
2022-12-23T04:29:27.224Z,14.27
2022-12-23T04:31:54.193Z,13.27
2022-12-23T04:34:21.216Z,12.40
2022-12-23T04:36:48.231Z,13.32
2022-12-23T04:39:15.281Z,12.75
2022-12-23T04:41:42.229Z,14.20
2022-12-23T04:44:09.320Z,14.35
2022-12-23T04:46:36.308Z,13.25
2022-12-23T04:49:03.389Z,13.48
2022-12-23T04:51:30.340Z,12.55
2022-12-23T04:53:57.289Z,14.20
2022-12-23T04:56:24.410Z,12.73
2022-12-23T04:58:51.438Z,13.18
2022-12-23T05:01:18.416Z,13.18
2022-12-23T05:03:45.405Z,15.63
2022-12-23T05:06:12.414Z,13.10
2022-12-23T05:08:39.434Z,13.55
2022-12-23T05:11:06.460Z,14.95
2022-12-23T05:13:33.435Z,15.48
2022-12-23T05:16:00.483Z,13.32
2022-12-23T05:18:27.572Z,12.80
2022-12-23T05:20:54.559Z,14.52
2022-12-23T05:23:21.520Z,17.13
2022-12-23T05:25:53.192Z,15.30
2022-12-23T05:28:22.162Z,15.10
2022-12-23T05:30:49.138Z,14.43
2022-12-23T05:33:16.177Z,14.93
2022-12-23T05:35:43.219Z,14.48
2022-12-23T05:38:10.172Z,15.18
2022-12-23T05:40:37.137Z,14.68
2022-12-23T05:43:04.219Z,12.75
2022-12-23T05:45:31.231Z,15.68
2022-12-23T05:47:58.235Z,14.07
2022-12-23T05:50:25.169Z,12.95
2022-12-23T05:52:52.125Z,14.48
2022-12-23T05:55:19.065Z,13.73
2022-12-23T05:57:46.051Z,13.43
2022-12-23T06:00:14.131Z,13.40
2022-12-23T06:02:41.279Z,14.40
2022-12-23T06:05:08.936Z,15.10
2022-12-23T06:07:36.010Z,14.35
2022-12-23T06:10:03.495Z,15.50
2022-12-23T06:12:30.541Z,12.20
2022-12-23T06:14:57.500Z,12.70
2022-12-23T06:17:24.456Z,12.60
2022-12-23T06:19:51.459Z,12.45
2022-12-23T06:22:21.123Z,12.05
2022-12-23T06:24:48.464Z,13.07
2022-12-23T06:27:15.722Z,13.38
2022-12-23T06:29:42.783Z,11.88
2022-12-23T06:32:09.936Z,13.68
2022-12-23T06:34:36.952Z,12.48
2022-12-23T06:37:03.967Z,13.32
2022-12-23T06:39:30.943Z,13.65
2022-12-23T06:41:57.970Z,13.80
2022-12-23T06:44:24.906Z,13.38
2022-12-23T06:46:51.885Z,13.10
2022-12-23T06:49:18.862Z,13.65
2022-12-23T06:51:45.791Z,14.40
2022-12-23T06:54:13.017Z,14.48
2022-12-23T06:56:40.148Z,14.00
2022-12-23T06:59:07.204Z,15.43
2022-12-23T07:01:34.373Z,14.57
2022-12-23T07:04:02.132Z,14.05
2022-12-23T07:06:29.597Z,13.35
2022-12-23T07:08:56.581Z,13.75
2022-12-23T07:11:23.522Z,13.02
2022-12-23T07:13:50.692Z,14.10
2022-12-23T07:16:17.759Z,13.35
2022-12-23T07:18:44.847Z,15.32
2022-12-23T07:21:20.024Z,12.38
2022-12-23T07:23:51.810Z,13.55
2022-12-23T07:26:18.854Z,14.48
2022-12-23T07:28:48.278Z,15.10
2022-12-23T07:31:16.504Z,13.55
2022-12-23T07:33:43.631Z,14.02
2022-12-23T07:36:11.040Z,12.13
2022-12-23T07:38:37.998Z,15.70
2022-12-23T07:41:05.161Z,14.88
2022-12-23T07:43:32.120Z,13.77
2022-12-23T07:46:00.839Z,16.30
2022-12-23T07:48:28.300Z,15.20
2022-12-23T07:51:01.768Z,17.50
2022-12-23T07:53:28.973Z,14.23
2022-12-23T07:55:57.034Z,15.10
2022-12-23T07:58:25.082Z,14.30
2022-12-23T08:00:59.799Z,15.02
2022-12-23T08:03:26.868Z,14.85
2022-12-23T08:06:09.028Z,13.75
2022-12-23T08:08:36.254Z,13.60
2022-12-23T08:11:05.477Z,14.43
2022-12-23T08:13:34.628Z,15.85
2022-12-23T08:16:03.068Z,16.10
2022-12-23T08:18:31.997Z,18.13
2022-12-23T08:21:04.507Z,16.92
2022-12-23T08:23:32.350Z,17.45
2022-12-23T08:26:04.559Z,15.02
2022-12-23T08:28:32.243Z,18.23
2022-12-23T08:31:05.201Z,15.63
2022-12-23T08:33:32.387Z,20.88
2022-12-23T08:35:59.802Z,19.02
2022-12-23T08:38:26.787Z,18.42
2022-12-23T08:40:53.763Z,19.95
2022-12-23T08:43:20.764Z,18.80
2022-12-23T08:45:47.820Z,18.10
2022-12-23T08:48:15.279Z,18.95
2022-12-23T08:50:44.884Z,18.05
2022-12-23T08:53:13.426Z,16.77
2022-12-23T08:55:43.502Z,16.98
2022-12-23T08:58:11.278Z,16.75
2022-12-23T09:00:39.051Z,14.32
2022-12-23T09:03:06.689Z,16.85
2022-12-23T09:05:34.571Z,17.30
2022-12-23T09:08:02.268Z,18.17
2022-12-23T09:10:29.396Z,18.70
2022-12-23T09:12:58.093Z,16.92
2022-12-23T09:15:25.364Z,16.15
2022-12-23T09:17:52.321Z,17.50
2022-12-23T09:20:19.281Z,17.35
2022-12-23T09:22:46.272Z,18.25
2022-12-23T09:25:14.292Z,20.92
2022-12-23T09:27:41.382Z,21.55
2022-12-23T09:30:10.354Z,19.88
2022-12-23T09:32:37.310Z,17.40
2022-12-23T09:35:04.865Z,19.67
2022-12-23T09:37:31.839Z,19.33
2022-12-23T09:39:58.875Z,18.98
2022-12-23T09:42:31.255Z,18.73
2022-12-23T09:45:25.955Z,15.95
2022-12-23T09:47:55.631Z,16.85
2022-12-23T09:50:28.938Z,16.05
2022-12-23T09:53:13.273Z,18.02
2022-12-23T09:55:49.150Z,17.92
2022-12-23T09:58:38.065Z,18.58
2022-12-23T10:01:14.428Z,20.38
2022-12-23T10:03:44.258Z,17.38
2022-12-23T10:06:20.078Z,20.40
2022-12-23T10:08:54.802Z,19.77
2022-12-23T10:11:26.708Z,16.95
2022-12-23T10:14:00.199Z,18.55
2022-12-23T10:16:35.823Z,16.60
2022-12-23T10:19:08.771Z,16.45
2022-12-23T10:21:54.997Z,17.38
2022-12-23T10:24:24.618Z,17.98
2022-12-23T10:26:53.139Z,17.13
2022-12-23T10:29:23.064Z,15.80
2022-12-23T10:31:58.862Z,17.67
2022-12-23T10:34:56.411Z,15.73
2022-12-23T10:37:33.627Z,17.23
2022-12-23T10:40:22.433Z,17.58
2022-12-23T10:43:26.964Z,18.05
2022-12-23T10:46:11.912Z,17.67
2022-12-23T10:49:00.262Z,17.27
2022-12-23T10:51:49.562Z,15.68
2022-12-23T10:54:37.206Z,15.85
2022-12-23T10:59:35.054Z,16.27
2022-12-23T11:02:27.295Z,17.35
2022-12-23T11:04:54.550Z,19.02
2022-12-23T11:07:44.164Z,15.88
2022-12-23T11:10:22.137Z,16.63
2022-12-23T11:12:51.803Z,17.85
2022-12-23T11:15:39.533Z,17.73
2022-12-23T11:18:12.586Z,19.17
2022-12-23T11:20:42.332Z,20.02
2022-12-23T11:23:28.874Z,19.90
2022-12-23T11:26:07.886Z,18.98
2022-12-23T11:28:47.769Z,18.23
2022-12-23T11:31:17.130Z,17.15
2022-12-23T11:34:11.106Z,20.27
2022-12-23T11:36:38.614Z,18.60
2022-12-23T11:39:14.440Z,19.42
2022-12-23T11:41:50.339Z,18.48
2022-12-23T11:44:32.420Z,18.60
2022-12-23T11:47:17.400Z,16.20
2022-12-23T11:49:53.978Z,18.42
2022-12-23T11:52:23.778Z,17.08
2022-12-23T11:54:57.209Z,17.30
2022-12-23T11:57:47.054Z,18.40
2022-12-23T12:00:24.885Z,20.58
2022-12-23T12:03:03.752Z,20.23
2022-12-23T12:05:41.394Z,17.92
2022-12-23T12:08:15.379Z,18.00
2022-12-23T12:10:43.315Z,18.25
2022-12-23T12:13:28.085Z,17.35
2022-12-23T12:16:01.125Z,17.90
2022-12-23T12:18:29.246Z,16.40
2022-12-23T12:21:01.753Z,16.30
2022-12-23T12:23:48.220Z,17.77
2022-12-23T12:26:25.959Z,15.68
2022-12-23T12:29:31.300Z,15.88
2022-12-23T12:32:00.227Z,15.48
2022-12-23T12:34:45.757Z,14.82
2022-12-23T12:37:12.661Z,15.35
2022-12-23T12:39:51.726Z,16.02
2022-12-23T12:42:29.228Z,14.52
2022-12-23T12:45:03.712Z,14.00
2022-12-23T12:48:00.196Z,16.25
2022-12-23T12:50:34.897Z,15.82
2022-12-23T12:53:13.668Z,13.65
2022-12-23T12:55:46.492Z,14.98
2022-12-23T12:58:21.907Z,15.48
2022-12-23T13:01:14.976Z,21.17
2022-12-23T13:04:14.489Z,15.57
2022-12-23T13:07:05.701Z,16.05
2022-12-23T13:09:53.058Z,15.27
2022-12-23T13:12:20.036Z,14.85
2022-12-23T13:15:08.994Z,14.52
2022-12-23T13:17:51.042Z,17.42
2022-12-23T13:21:04.339Z,14.73
2022-12-23T13:24:04.056Z,13.52
2022-12-23T13:26:51.659Z,14.70
2022-12-23T13:29:58.299Z,14.45
2022-12-23T13:32:54.670Z,12.57
2022-12-23T13:35:43.583Z,15.40
2022-12-23T13:39:07.847Z,14.88
2022-12-23T13:41:40.915Z,15.00
2022-12-23T13:44:10.812Z,13.73
2022-12-23T13:46:55.080Z,13.35
2022-12-23T13:49:33.910Z,11.63
2022-12-23T13:52:08.500Z,12.50
2022-12-23T13:55:03.157Z,12.07
2022-12-23T13:57:59.908Z,11.98
2022-12-23T14:00:30.995Z,12.88
2022-12-23T14:02:57.945Z,13.45
2022-12-23T14:05:46.929Z,13.27
2022-12-23T14:08:19.910Z,13.63
2022-12-23T14:11:12.781Z,12.32
2022-12-23T14:13:52.184Z,12.18
2022-12-23T14:16:21.893Z,13.13
2022-12-23T14:19:16.498Z,12.80
2022-12-23T14:22:08.048Z,12.15
2022-12-23T14:24:45.502Z,11.27
2022-12-23T14:27:24.594Z,12.13
2022-12-23T14:32:50.733Z,11.73
2022-12-23T14:35:38.599Z,12.52
2022-12-23T14:38:15.252Z,12.50
2022-12-23T14:40:42.199Z,10.77
2022-12-23T14:43:32.832Z,10.32
2022-12-23T14:46:05.984Z,10.07
2022-12-23T14:48:36.201Z,9.70
2022-12-23T14:51:10.226Z,8.57
2022-12-23T14:53:53.873Z,9.50
2022-12-23T14:56:28.798Z,9.48
2022-12-23T14:59:05.237Z,9.00
2022-12-23T15:01:42.676Z,8.23
2022-12-23T15:04:24.302Z,8.18
2022-12-23T15:06:55.732Z,8.00
2022-12-23T15:09:28.786Z,7.65
2022-12-23T15:11:59.892Z,7.57
2022-12-23T15:14:57.393Z,7.70
2022-12-23T15:17:27.954Z,6.95
2022-12-23T15:20:22.406Z,6.90
2022-12-23T15:22:49.872Z,7.32
2022-12-23T15:25:26.567Z,6.93
2022-12-23T15:28:01.496Z,6.85
2022-12-23T15:30:46.303Z,6.55
2022-12-23T15:33:51.817Z,6.63
2022-12-23T15:36:06.653Z,8.90
2022-12-23T15:38:37.683Z,7.28
2022-12-23T15:41:15.544Z,6.63
2022-12-23T15:43:43.518Z,6.72
2022-12-23T15:46:21.930Z,7.43
2022-12-23T15:48:52.694Z,6.88
2022-12-23T15:54:34.292Z,6.22
2022-12-23T15:57:03.360Z,6.18
2022-12-23T15:59:37.813Z,6.32
2022-12-23T16:02:40.457Z,5.65
2022-12-23T16:05:00.799Z,7.15
2022-12-23T16:07:37.054Z,7.30
2022-12-23T16:10:24.447Z,7.78
2022-12-23T16:12:52.137Z,7.40
2022-12-23T16:15:33.377Z,8.15
2022-12-23T16:18:19.237Z,7.35
2022-12-23T16:20:49.971Z,8.02
2022-12-23T16:23:17.933Z,7.78
2022-12-23T16:25:50.399Z,7.68
2022-12-23T16:28:30.029Z,8.30
2022-12-23T16:30:58.588Z,8.73
2022-12-23T16:33:51.496Z,8.23
2022-12-23T16:36:27.762Z,9.30
2022-12-23T16:39:06.743Z,8.68
2022-12-23T16:41:34.978Z,9.32
2022-12-23T16:44:02.847Z,9.82
2022-12-23T16:46:37.033Z,9.00
2022-12-23T16:49:08.493Z,8.50
2022-12-23T16:51:38.544Z,9.30
2022-12-23T16:54:06.277Z,9.00
2022-12-23T16:56:37.970Z,8.43
2022-12-23T16:59:05.388Z,9.68
2022-12-23T17:01:35.183Z,10.68
2022-12-23T17:04:02.719Z,10.82
2022-12-23T17:06:29.797Z,10.95
2022-12-23T17:08:57.154Z,9.73
2022-12-23T17:11:38.652Z,9.82
2022-12-23T17:14:13.530Z,9.93
2022-12-23T17:16:42.709Z,10.32
2022-12-23T17:19:09.852Z,10.32
2022-12-23T17:21:39.184Z,9.70
2022-12-23T17:24:25.509Z,10.00
2022-12-23T17:26:53.952Z,10.75
2022-12-23T17:29:20.980Z,10.32
2022-12-23T17:31:49.058Z,10.10
2022-12-23T17:34:20.818Z,10.55
2022-12-23T17:36:50.763Z,10.52
2022-12-23T17:39:19.707Z,11.77
2022-12-23T17:41:46.869Z,10.82
2022-12-23T17:44:15.425Z,12.27
2022-12-23T17:46:43.187Z,10.38
2022-12-23T17:49:10.218Z,11.73
2022-12-23T17:51:39.655Z,11.05
2022-12-23T17:54:06.867Z,10.25
2022-12-23T17:56:33.890Z,11.82
2022-12-23T17:59:00.911Z,9.93
2022-12-23T18:01:30.470Z,12.25
2022-12-23T18:03:59.046Z,11.85
2022-12-23T18:06:28.128Z,12.38
2022-12-23T18:08:57.201Z,12.90
2022-12-23T18:11:36.507Z,10.95
2022-12-23T18:14:04.229Z,10.68
2022-12-23T18:16:31.452Z,12.88
2022-12-23T18:18:58.611Z,12.00
2022-12-23T18:21:28.807Z,11.30
2022-12-23T18:23:58.847Z,11.25
2022-12-23T18:26:26.312Z,10.55
2022-12-23T18:28:54.441Z,10.80
2022-12-23T18:31:27.495Z,11.30
2022-12-23T18:33:54.953Z,11.35
2022-12-23T18:36:28.453Z,9.95
2022-12-23T18:38:57.253Z,10.50
2022-12-23T18:41:26.101Z,11.32
2022-12-23T18:43:53.788Z,9.82
2022-12-23T18:46:21.440Z,8.32
2022-12-23T18:48:48.722Z,9.23
2022-12-23T18:51:17.593Z,11.40
2022-12-23T18:53:46.564Z,9.82
2022-12-23T18:56:15.222Z,9.27
2022-12-23T18:58:42.619Z,9.23
2022-12-23T19:01:14.626Z,9.90
2022-12-23T19:03:42.683Z,10.40
2022-12-23T19:06:13.410Z,9.38
2022-12-23T19:08:41.845Z,10.00
2022-12-23T19:11:17.808Z,8.80
2022-12-23T19:13:45.604Z,9.35
2022-12-23T19:16:18.387Z,9.13
2022-12-23T19:18:46.705Z,8.40
2022-12-23T19:21:14.401Z,8.75
2022-12-23T19:23:42.049Z,9.07
2022-12-23T19:26:14.271Z,9.15
2022-12-23T19:28:42.078Z,10.15
2022-12-23T19:31:10.920Z,9.68
2022-12-23T19:33:42.827Z,9.82
2022-12-23T19:36:22.995Z,10.00
2022-12-23T19:38:50.420Z,8.80
2022-12-23T19:41:18.666Z,8.70
2022-12-23T19:43:47.119Z,9.88
2022-12-23T19:46:15.446Z,9.88
2022-12-23T19:48:42.836Z,10.02
2022-12-23T19:51:14.387Z,9.10
2022-12-23T19:53:42.180Z,9.98
2022-12-23T19:56:14.483Z,10.45
2022-12-23T19:58:44.180Z,9.07
2022-12-23T20:01:17.264Z,9.73
2022-12-23T20:03:46.181Z,8.43
2022-12-23T20:06:22.027Z,9.60
2022-12-23T20:08:52.655Z,9.57
2022-12-23T20:11:26.233Z,10.68
2022-12-23T20:13:54.703Z,9.73
2022-12-23T20:16:22.763Z,10.38
2022-12-23T20:18:49.926Z,11.75
2022-12-23T20:21:17.202Z,11.73
2022-12-23T20:23:44.188Z,9.73
2022-12-23T20:26:13.116Z,10.93
2022-12-23T20:28:40.627Z,10.07
2022-12-23T20:31:26.953Z,10.82
2022-12-23T20:33:54.734Z,10.57
2022-12-23T20:36:27.851Z,10.18
2022-12-23T20:38:56.250Z,9.57
2022-12-23T20:41:26.475Z,10.02
2022-12-23T20:44:31.599Z,11.20
2022-12-23T20:46:41.157Z,10.38
2022-12-23T20:49:08.220Z,9.07
2022-12-23T20:51:35.160Z,13.13
2022-12-23T20:54:02.176Z,11.20
2022-12-23T20:56:30.512Z,11.15
2022-12-23T20:58:59.391Z,10.93
2022-12-23T21:01:28.392Z,10.02
2022-12-23T21:03:56.945Z,10.55
2022-12-23T21:06:24.747Z,10.20
2022-12-23T21:08:52.514Z,9.38
2022-12-23T21:11:19.527Z,10.10
2022-12-23T21:13:50.597Z,9.73
2022-12-23T21:16:18.675Z,9.13
2022-12-23T21:18:53.634Z,8.23
2022-12-23T21:21:23.738Z,9.10
2022-12-23T21:23:50.861Z,9.18
2022-12-23T21:26:20.523Z,9.27
2022-12-23T21:28:48.859Z,9.20
2022-12-23T21:31:19.068Z,8.82
2022-12-23T21:33:47.697Z,8.77
2022-12-23T21:36:20.222Z,9.35
2022-12-23T21:38:49.288Z,8.38
2022-12-23T21:41:19.919Z,16.15
2022-12-23T21:43:47.571Z,10.57
2022-12-23T21:46:17.235Z,9.13
2022-12-23T21:48:44.975Z,9.60
2022-12-23T21:51:16.767Z,9.52
2022-12-23T21:53:45.478Z,9.88
2022-12-23T21:56:16.224Z,9.98
2022-12-23T21:58:43.512Z,8.75
2022-12-23T22:01:13.652Z,8.70
2022-12-23T22:03:41.550Z,9.43
2022-12-23T22:06:14.184Z,9.65
2022-12-23T22:08:42.071Z,8.75
2022-12-23T22:11:17.227Z,9.73
2022-12-23T22:13:45.090Z,8.77
2022-12-23T22:16:14.677Z,8.48
2022-12-23T22:18:42.742Z,8.45
2022-12-23T22:21:21.596Z,8.70
2022-12-23T22:23:50.030Z,8.25
2022-12-23T22:26:25.279Z,8.07
2022-12-23T22:28:55.041Z,9.00
2022-12-23T22:31:27.313Z,8.65
2022-12-23T22:33:54.516Z,8.32
2022-12-23T22:36:21.677Z,8.05
2022-12-23T22:38:57.698Z,8.45
2022-12-23T22:41:28.077Z,8.23
2022-12-23T22:43:56.113Z,7.65
2022-12-23T22:46:24.654Z,7.93
2022-12-23T22:48:52.774Z,7.10
2022-12-23T22:51:23.082Z,7.85
2022-12-23T22:53:50.918Z,7.57
2022-12-23T22:56:19.548Z,8.88
2022-12-23T22:58:47.474Z,7.55
2022-12-23T23:01:23.903Z,7.05
2022-12-23T23:03:57.334Z,8.18
2022-12-23T23:06:26.654Z,7.47
2022-12-23T23:08:54.959Z,8.38
2022-12-23T23:11:22.814Z,7.50
2022-12-23T23:13:49.756Z,8.20
2022-12-23T23:16:16.750Z,8.07
2022-12-23T23:18:44.072Z,7.30
2022-12-23T23:21:13.293Z,7.53
2022-12-23T23:23:40.389Z,6.53
2022-12-23T23:26:10.309Z,6.90
2022-12-23T23:28:39.461Z,6.72
2022-12-23T23:31:40.621Z,7.95
2022-12-23T23:33:54.281Z,7.35
2022-12-23T23:36:21.509Z,7.75
2022-12-23T23:38:48.530Z,7.63
2022-12-23T23:41:20.616Z,8.10
2022-12-23T23:43:50.079Z,7.40
2022-12-23T23:46:17.246Z,8.23
2022-12-23T23:48:44.303Z,8.13
2022-12-23T23:51:12.653Z,8.38
2022-12-23T23:53:40.495Z,8.43
2022-12-23T23:56:08.544Z,7.97
2022-12-23T23:58:36.886Z,7.78
